sensor_id;sensor_type;location;lat;lon;timestamp;P1;durP1;ratioP1;P2;durP2;ratioP2
19842;SDS011;10082;51.038;6.992;2022-09-13T00:01:01;6.20;;;5.70;;
19842;SDS011;10082;51.038;6.992;2022-09-13T00:03:28;5.80;;;5.40;;
19842;SDS011;10082;51.038;6.992;2022-09-13T00:05:55;5.70;;;5.30;;
19842;SDS011;10082;51.038;6.992;2022-09-13T00:08:25;5.57;;;5.10;;
19842;SDS011;10082;51.038;6.992;2022-09-13T00:10:52;6.05;;;5.65;;
19842;SDS011;10082;51.038;6.992;2022-09-13T00:13:19;5.53;;;5.03;;
19842;SDS011;10082;51.038;6.992;2022-09-13T00:15:47;5.57;;;5.07;;
19842;SDS011;10082;51.038;6.992;2022-09-13T00:18:15;6.15;;;5.60;;
19842;SDS011;10082;51.038;6.992;2022-09-13T00:20:43;6.30;;;5.75;;
19842;SDS011;10082;51.038;6.992;2022-09-13T00:23:11;5.72;;;5.22;;
19842;SDS011;10082;51.038;6.992;2022-09-13T00:25:40;6.35;;;5.75;;
19842;SDS011;10082;51.038;6.992;2022-09-13T00:28:07;5.82;;;5.43;;
19842;SDS011;10082;51.038;6.992;2022-09-13T00:30:33;6.95;;;5.13;;
19842;SDS011;10082;51.038;6.992;2022-09-13T00:33:01;5.82;;;5.38;;
19842;SDS011;10082;51.038;6.992;2022-09-13T00:35:28;5.60;;;5.20;;
19842;SDS011;10082;51.038;6.992;2022-09-13T00:37:57;5.93;;;5.40;;
19842;SDS011;10082;51.038;6.992;2022-09-13T00:40:25;5.75;;;5.25;;
19842;SDS011;10082;51.038;6.992;2022-09-13T00:42:54;5.88;;;5.38;;
19842;SDS011;10082;51.038;6.992;2022-09-13T00:45:21;5.70;;;5.20;;
19842;SDS011;10082;51.038;6.992;2022-09-13T00:47:50;5.65;;;5.15;;
19842;SDS011;10082;51.038;6.992;2022-09-13T00:50:21;5.75;;;5.25;;
19842;SDS011;10082;51.038;6.992;2022-09-13T00:52:51;6.40;;;5.80;;
19842;SDS011;10082;51.038;6.992;2022-09-13T00:55:23;6.18;;;5.68;;
19842;SDS011;10082;51.038;6.992;2022-09-13T00:57:57;5.65;;;5.25;;
19842;SDS011;10082;51.038;6.992;2022-09-13T01:00:28;6.13;;;5.68;;
19842;SDS011;10082;51.038;6.992;2022-09-13T01:02:56;6.32;;;5.72;;
19842;SDS011;10082;51.038;6.992;2022-09-13T01:05:26;6.05;;;5.53;;
19842;SDS011;10082;51.038;6.992;2022-09-13T01:07:58;5.75;;;5.35;;
19842;SDS011;10082;51.038;6.992;2022-09-13T01:10:26;5.65;;;5.25;;
19842;SDS011;10082;51.038;6.992;2022-09-13T01:12:58;5.75;;;5.22;;
19842;SDS011;10082;51.038;6.992;2022-09-13T01:15:37;5.50;;;4.97;;
19842;SDS011;10082;51.038;6.992;2022-09-13T01:18:04;5.60;;;5.20;;
19842;SDS011;10082;51.038;6.992;2022-09-13T01:20:37;5.90;;;5.35;;
19842;SDS011;10082;51.038;6.992;2022-09-13T01:23:35;6.13;;;5.53;;
19842;SDS011;10082;51.038;6.992;2022-09-13T01:26:24;5.80;;;5.30;;
19842;SDS011;10082;51.038;6.992;2022-09-13T01:29:21;5.60;;;5.20;;
19842;SDS011;10082;51.038;6.992;2022-09-13T01:32:03;5.90;;;5.43;;
19842;SDS011;10082;51.038;6.992;2022-09-13T01:34:41;5.60;;;5.10;;
19842;SDS011;10082;51.038;6.992;2022-09-13T01:37:29;5.68;;;5.18;;
19842;SDS011;10082;51.038;6.992;2022-09-13T01:40:05;6.28;;;5.60;;
19842;SDS011;10082;51.038;6.992;2022-09-13T01:42:45;5.70;;;5.22;;
19842;SDS011;10082;51.038;6.992;2022-09-13T01:45:26;6.05;;;5.10;;
19842;SDS011;10082;51.038;6.992;2022-09-13T01:48:03;5.38;;;4.95;;
19842;SDS011;10082;51.038;6.992;2022-09-13T01:50:39;5.38;;;4.88;;
19842;SDS011;10082;51.038;6.992;2022-09-13T01:53:12;5.43;;;5.03;;
19842;SDS011;10082;51.038;6.992;2022-09-13T01:55:47;5.70;;;5.30;;
19842;SDS011;10082;51.038;6.992;2022-09-13T01:58:23;7.03;;;5.68;;
19842;SDS011;10082;51.038;6.992;2022-09-13T02:00:55;6.05;;;5.20;;
19842;SDS011;10082;51.038;6.992;2022-09-13T02:03:32;5.63;;;5.18;;
19842;SDS011;10082;51.038;6.992;2022-09-13T02:06:05;5.80;;;5.30;;
19842;SDS011;10082;51.038;6.992;2022-09-13T02:08:37;5.43;;;5.03;;
19842;SDS011;10082;51.038;6.992;2022-09-13T02:11:09;5.60;;;5.10;;
19842;SDS011;10082;51.038;6.992;2022-09-13T02:13:39;5.53;;;5.13;;
19842;SDS011;10082;51.038;6.992;2022-09-13T02:16:12;5.90;;;5.40;;
19842;SDS011;10082;51.038;6.992;2022-09-13T02:18:46;5.72;;;5.22;;
19842;SDS011;10082;51.038;6.992;2022-09-13T02:21:17;5.90;;;5.40;;
19842;SDS011;10082;51.038;6.992;2022-09-13T02:23:48;5.80;;;5.40;;
19842;SDS011;10082;51.038;6.992;2022-09-13T02:26:18;5.93;;;5.40;;
19842;SDS011;10082;51.038;6.992;2022-09-13T02:28:50;5.40;;;5.00;;
19842;SDS011;10082;51.038;6.992;2022-09-13T02:31:22;5.30;;;4.90;;
19842;SDS011;10082;51.038;6.992;2022-09-13T02:33:55;5.65;;;5.10;;
19842;SDS011;10082;51.038;6.992;2022-09-13T02:36:28;5.78;;;5.28;;
19842;SDS011;10082;51.038;6.992;2022-09-13T02:38:58;5.47;;;4.97;;
19842;SDS011;10082;51.038;6.992;2022-09-13T02:41:29;5.63;;;5.13;;
19842;SDS011;10082;51.038;6.992;2022-09-13T02:44:09;5.68;;;5.20;;
19842;SDS011;10082;51.038;6.992;2022-09-13T02:46:43;5.57;;;5.18;;
19842;SDS011;10082;51.038;6.992;2022-09-13T02:49:24;5.30;;;4.90;;
19842;SDS011;10082;51.038;6.992;2022-09-13T02:51:58;5.53;;;5.10;;
19842;SDS011;10082;51.038;6.992;2022-09-13T02:54:34;6.47;;;5.30;;
19842;SDS011;10082;51.038;6.992;2022-09-13T02:57:05;5.95;;;5.32;;
19842;SDS011;10082;51.038;6.992;2022-09-13T02:59:37;5.65;;;5.22;;
19842;SDS011;10082;51.038;6.992;2022-09-13T03:02:05;5.63;;;5.13;;
19842;SDS011;10082;51.038;6.992;2022-09-13T03:04:36;5.90;;;5.50;;
19842;SDS011;10082;51.038;6.992;2022-09-13T03:07:04;6.13;;;5.60;;
19842;SDS011;10082;51.038;6.992;2022-09-13T03:09:35;5.80;;;5.40;;
19842;SDS011;10082;51.038;6.992;2022-09-13T03:12:09;5.88;;;5.38;;
19842;SDS011;10082;51.038;6.992;2022-09-13T03:15:01;6.03;;;5.53;;
19842;SDS011;10082;51.038;6.992;2022-09-13T03:17:40;6.18;;;5.70;;
19842;SDS011;10082;51.038;6.992;2022-09-13T03:20:21;5.97;;;5.47;;
19842;SDS011;10082;51.038;6.992;2022-09-13T03:23:00;6.25;;;5.72;;
19842;SDS011;10082;51.038;6.992;2022-09-13T03:25:51;6.63;;;6.03;;
19842;SDS011;10082;51.038;6.992;2022-09-13T03:28:34;6.07;;;5.53;;
19842;SDS011;10082;51.038;6.992;2022-09-13T03:31:06;5.85;;;5.35;;
19842;SDS011;10082;51.038;6.992;2022-09-13T03:33:41;6.03;;;5.40;;
19842;SDS011;10082;51.038;6.992;2022-09-13T03:36:14;6.82;;;6.22;;
19842;SDS011;10082;51.038;6.992;2022-09-13T03:38:51;6.55;;;5.95;;
19842;SDS011;10082;51.038;6.992;2022-09-13T03:41:26;6.20;;;5.68;;
19842;SDS011;10082;51.038;6.992;2022-09-13T03:43:58;6.13;;;5.55;;
19842;SDS011;10082;51.038;6.992;2022-09-13T03:46:28;5.78;;;5.28;;
19842;SDS011;10082;51.038;6.992;2022-09-13T03:48:59;5.63;;;5.13;;
19842;SDS011;10082;51.038;6.992;2022-09-13T03:51:32;6.18;;;5.57;;
19842;SDS011;10082;51.038;6.992;2022-09-13T03:54:00;6.13;;;5.63;;
19842;SDS011;10082;51.038;6.992;2022-09-13T03:56:30;5.97;;;5.47;;
19842;SDS011;10082;51.038;6.992;2022-09-13T03:58:57;6.22;;;5.72;;
19842;SDS011;10082;51.038;6.992;2022-09-13T04:01:25;5.90;;;5.50;;
19842;SDS011;10082;51.038;6.992;2022-09-13T04:03:52;5.72;;;5.30;;
19842;SDS011;10082;51.038;6.992;2022-09-13T04:06:19;6.07;;;5.57;;
19842;SDS011;10082;51.038;6.992;2022-09-13T04:08:49;6.53;;;5.88;;
19842;SDS011;10082;51.038;6.992;2022-09-13T04:11:16;5.70;;;5.30;;
19842;SDS011;10082;51.038;6.992;2022-09-13T04:13:45;5.50;;;5.00;;
19842;SDS011;10082;51.038;6.992;2022-09-13T04:16:12;6.25;;;5.60;;
19842;SDS011;10082;51.038;6.992;2022-09-13T04:18:39;6.50;;;5.90;;
19842;SDS011;10082;51.038;6.992;2022-09-13T04:21:07;5.95;;;5.45;;
19842;SDS011;10082;51.038;6.992;2022-09-13T04:23:34;5.60;;;5.20;;
19842;SDS011;10082;51.038;6.992;2022-09-13T04:26:04;5.88;;;5.38;;
19842;SDS011;10082;51.038;6.992;2022-09-13T04:28:31;6.45;;;5.82;;
19842;SDS011;10082;51.038;6.992;2022-09-13T04:30:58;5.40;;;5.00;;
19842;SDS011;10082;51.038;6.992;2022-09-13T04:33:25;5.97;;;5.57;;
19842;SDS011;10082;51.038;6.992;2022-09-13T04:35:58;6.10;;;5.63;;
19842;SDS011;10082;51.038;6.992;2022-09-13T04:38:25;6.25;;;5.75;;
19842;SDS011;10082;51.038;6.992;2022-09-13T04:40:53;6.63;;;6.13;;
19842;SDS011;10082;51.038;6.992;2022-09-13T04:43:21;5.78;;;5.32;;
19842;SDS011;10082;51.038;6.992;2022-09-13T04:45:49;6.25;;;5.75;;
19842;SDS011;10082;51.038;6.992;2022-09-13T04:48:16;6.43;;;6.00;;
19842;SDS011;10082;51.038;6.992;2022-09-13T04:50:43;6.05;;;5.55;;
19842;SDS011;10082;51.038;6.992;2022-09-13T04:53:10;5.78;;;5.38;;
19842;SDS011;10082;51.038;6.992;2022-09-13T04:55:37;6.65;;;6.03;;
19842;SDS011;10082;51.038;6.992;2022-09-13T04:58:03;6.07;;;5.57;;
19842;SDS011;10082;51.038;6.992;2022-09-13T05:00:32;6.07;;;5.57;;
19842;SDS011;10082;51.038;6.992;2022-09-13T05:02:59;5.90;;;5.45;;
19842;SDS011;10082;51.038;6.992;2022-09-13T05:05:25;6.15;;;5.65;;
19842;SDS011;10082;51.038;6.992;2022-09-13T05:07:53;6.13;;;5.63;;
19842;SDS011;10082;51.038;6.992;2022-09-13T05:10:20;6.15;;;5.60;;
19842;SDS011;10082;51.038;6.992;2022-09-13T05:12:46;5.82;;;5.40;;
19842;SDS011;10082;51.038;6.992;2022-09-13T05:15:13;5.57;;;5.15;;
19842;SDS011;10082;51.038;6.992;2022-09-13T05:17:41;5.90;;;5.43;;
19842;SDS011;10082;51.038;6.992;2022-09-13T05:20:08;6.15;;;5.57;;
19842;SDS011;10082;51.038;6.992;2022-09-13T05:22:35;5.60;;;5.10;;
19842;SDS011;10082;51.038;6.992;2022-09-13T05:25:03;5.88;;;5.47;;
19842;SDS011;10082;51.038;6.992;2022-09-13T05:27:30;5.40;;;5.00;;
19842;SDS011;10082;51.038;6.992;2022-09-13T05:29:57;5.32;;;4.90;;
19842;SDS011;10082;51.038;6.992;2022-09-13T05:32:24;5.18;;;4.78;;
19842;SDS011;10082;51.038;6.992;2022-09-13T05:34:53;5.70;;;5.20;;
19842;SDS011;10082;51.038;6.992;2022-09-13T05:37:20;6.95;;;5.10;;
19842;SDS011;10082;51.038;6.992;2022-09-13T05:39:47;5.80;;;5.30;;
19842;SDS011;10082;51.038;6.992;2022-09-13T05:42:14;5.75;;;5.25;;
19842;SDS011;10082;51.038;6.992;2022-09-13T05:44:41;5.75;;;5.25;;
19842;SDS011;10082;51.038;6.992;2022-09-13T05:47:08;6.25;;;5.60;;
19842;SDS011;10082;51.038;6.992;2022-09-13T05:49:35;5.63;;;5.22;;
19842;SDS011;10082;51.038;6.992;2022-09-13T05:52:03;6.32;;;5.82;;
19842;SDS011;10082;51.038;6.992;2022-09-13T05:54:30;5.95;;;5.45;;
19842;SDS011;10082;51.038;6.992;2022-09-13T05:56:57;5.43;;;4.95;;
19842;SDS011;10082;51.038;6.992;2022-09-13T05:59:24;5.65;;;5.05;;
19842;SDS011;10082;51.038;6.992;2022-09-13T06:01:51;5.43;;;5.03;;
19842;SDS011;10082;51.038;6.992;2022-09-13T06:04:17;6.75;;;5.10;;
19842;SDS011;10082;51.038;6.992;2022-09-13T06:06:44;5.90;;;5.32;;
19842;SDS011;10082;51.038;6.992;2022-09-13T06:09:12;6.38;;;4.78;;
19842;SDS011;10082;51.038;6.992;2022-09-13T06:11:39;5.57;;;5.10;;
19842;SDS011;10082;51.038;6.992;2022-09-13T06:14:06;5.70;;;5.20;;
19842;SDS011;10082;51.038;6.992;2022-09-13T06:16:33;5.88;;;5.28;;
19842;SDS011;10082;51.038;6.992;2022-09-13T06:19:01;4.88;;;4.47;;
19842;SDS011;10082;51.038;6.992;2022-09-13T06:21:28;5.30;;;4.80;;
19842;SDS011;10082;51.038;6.992;2022-09-13T06:23:55;5.72;;;5.32;;
19842;SDS011;10082;51.038;6.992;2022-09-13T06:26:23;5.15;;;4.65;;
19842;SDS011;10082;51.038;6.992;2022-09-13T06:28:52;5.43;;;4.93;;
19842;SDS011;10082;51.038;6.992;2022-09-13T06:31:21;5.03;;;4.63;;
19842;SDS011;10082;51.038;6.992;2022-09-13T06:33:53;5.03;;;4.63;;
19842;SDS011;10082;51.038;6.992;2022-09-13T06:36:22;4.97;;;4.57;;
19842;SDS011;10082;51.038;6.992;2022-09-13T06:38:49;5.00;;;4.60;;
19842;SDS011;10082;51.038;6.992;2022-09-13T06:41:17;5.05;;;4.57;;
19842;SDS011;10082;51.038;6.992;2022-09-13T06:43:50;6.03;;;4.60;;
19842;SDS011;10082;51.038;6.992;2022-09-13T06:46:18;5.53;;;4.70;;
19842;SDS011;10082;51.038;6.992;2022-09-13T06:48:45;4.75;;;4.20;;
19842;SDS011;10082;51.038;6.992;2022-09-13T06:51:13;4.60;;;4.20;;
19842;SDS011;10082;51.038;6.992;2022-09-13T06:53:41;4.82;;;4.43;;
19842;SDS011;10082;51.038;6.992;2022-09-13T06:56:10;4.60;;;4.20;;
19842;SDS011;10082;51.038;6.992;2022-09-13T06:58:38;4.20;;;3.80;;
19842;SDS011;10082;51.038;6.992;2022-09-13T07:01:09;4.30;;;3.97;;
19842;SDS011;10082;51.038;6.992;2022-09-13T07:03:39;4.05;;;3.70;;
19842;SDS011;10082;51.038;6.992;2022-09-13T07:06:11;4.22;;;3.83;;
19842;SDS011;10082;51.038;6.992;2022-09-13T07:08:39;5.45;;;4.45;;
19842;SDS011;10082;51.038;6.992;2022-09-13T07:11:07;4.88;;;4.47;;
19842;SDS011;10082;51.038;6.992;2022-09-13T07:13:34;5.35;;;4.00;;
19842;SDS011;10082;51.038;6.992;2022-09-13T07:16:02;4.10;;;3.75;;
19842;SDS011;10082;51.038;6.992;2022-09-13T07:18:32;4.28;;;3.88;;
19842;SDS011;10082;51.038;6.992;2022-09-13T07:20:59;4.38;;;4.07;;
19842;SDS011;10082;51.038;6.992;2022-09-13T07:23:28;4.18;;;3.83;;
19842;SDS011;10082;51.038;6.992;2022-09-13T07:25:56;4.63;;;4.00;;
19842;SDS011;10082;51.038;6.992;2022-09-13T07:28:27;4.43;;;4.05;;
19842;SDS011;10082;51.038;6.992;2022-09-13T07:30:55;4.63;;;4.22;;
19842;SDS011;10082;51.038;6.992;2022-09-13T07:33:24;5.00;;;4.60;;
19842;SDS011;10082;51.038;6.992;2022-09-13T07:35:56;4.10;;;3.78;;
19842;SDS011;10082;51.038;6.992;2022-09-13T07:38:23;3.80;;;3.50;;
19842;SDS011;10082;51.038;6.992;2022-09-13T07:40:54;3.80;;;3.50;;
19842;SDS011;10082;51.038;6.992;2022-09-13T07:43:22;4.07;;;3.78;;
19842;SDS011;10082;51.038;6.992;2022-09-13T07:45:55;4.68;;;3.90;;
19842;SDS011;10082;51.038;6.992;2022-09-13T07:48:23;4.32;;;3.95;;
19842;SDS011;10082;51.038;6.992;2022-09-13T07:51:02;3.90;;;3.60;;
19842;SDS011;10082;51.038;6.992;2022-09-13T07:53:30;5.40;;;4.07;;
19842;SDS011;10082;51.038;6.992;2022-09-13T07:55:59;4.47;;;4.07;;
19842;SDS011;10082;51.038;6.992;2022-09-13T07:58:27;3.90;;;3.60;;
19842;SDS011;10082;51.038;6.992;2022-09-13T08:00:56;4.55;;;4.15;;
19842;SDS011;10082;51.038;6.992;2022-09-13T08:03:28;4.10;;;3.67;;
19842;SDS011;10082;51.038;6.992;2022-09-13T08:05:55;4.45;;;3.75;;
19842;SDS011;10082;51.038;6.992;2022-09-13T08:08:23;3.95;;;3.65;;
19842;SDS011;10082;51.038;6.992;2022-09-13T08:10:50;3.92;;;3.58;;
19842;SDS011;10082;51.038;6.992;2022-09-13T08:13:17;4.20;;;3.75;;
19842;SDS011;10082;51.038;6.992;2022-09-13T08:15:44;4.22;;;3.63;;
19842;SDS011;10082;51.038;6.992;2022-09-13T08:18:11;5.30;;;3.72;;
19842;SDS011;10082;51.038;6.992;2022-09-13T08:20:38;4.15;;;3.75;;
19842;SDS011;10082;51.038;6.992;2022-09-13T08:23:05;5.32;;;3.60;;
19842;SDS011;10082;51.038;6.992;2022-09-13T08:25:35;4.07;;;3.60;;
19842;SDS011;10082;51.038;6.992;2022-09-13T08:28:04;4.35;;;3.67;;
19842;SDS011;10082;51.038;6.992;2022-09-13T08:30:32;4.20;;;3.80;;
19842;SDS011;10082;51.038;6.992;2022-09-13T08:33:01;6.82;;;3.47;;
19842;SDS011;10082;51.038;6.992;2022-09-13T08:35:28;3.70;;;3.00;;
19842;SDS011;10082;51.038;6.992;2022-09-13T08:37:55;3.42;;;3.13;;
19842;SDS011;10082;51.038;6.992;2022-09-13T08:40:23;3.45;;;3.15;;
19842;SDS011;10082;51.038;6.992;2022-09-13T08:42:55;3.55;;;3.25;;
19842;SDS011;10082;51.038;6.992;2022-09-13T08:45:27;5.13;;;3.42;;
19842;SDS011;10082;51.038;6.992;2022-09-13T08:47:55;4.03;;;3.55;;
19842;SDS011;10082;51.038;6.992;2022-09-13T08:50:25;5.13;;;3.47;;
19842;SDS011;10082;51.038;6.992;2022-09-13T08:52:57;5.20;;;3.90;;
19842;SDS011;10082;51.038;6.992;2022-09-13T08:55:33;5.70;;;3.53;;
19842;SDS011;10082;51.038;6.992;2022-09-13T08:58:16;4.70;;;3.47;;
19842;SDS011;10082;51.038;6.992;2022-09-13T09:00:56;6.13;;;4.00;;
19842;SDS011;10082;51.038;6.992;2022-09-13T09:03:29;5.68;;;3.70;;
19842;SDS011;10082;51.038;6.992;2022-09-13T09:06:10;4.53;;;3.30;;
19842;SDS011;10082;51.038;6.992;2022-09-13T09:08:39;4.32;;;3.45;;
19842;SDS011;10082;51.038;6.992;2022-09-13T09:11:13;4.22;;;3.83;;
19842;SDS011;10082;51.038;6.992;2022-09-13T09:13:50;4.75;;;4.15;;
19842;SDS011;10082;51.038;6.992;2022-09-13T09:16:26;4.03;;;3.63;;
19842;SDS011;10082;51.038;6.992;2022-09-13T09:18:58;4.90;;;4.05;;
19842;SDS011;10082;51.038;6.992;2022-09-13T09:21:32;4.30;;;3.90;;
19842;SDS011;10082;51.038;6.992;2022-09-13T09:23:59;4.43;;;3.90;;
19842;SDS011;10082;51.038;6.992;2022-09-13T09:26:29;4.45;;;3.97;;
19842;SDS011;10082;51.038;6.992;2022-09-13T09:28:59;5.80;;;4.32;;
19842;SDS011;10082;51.038;6.992;2022-09-13T09:31:30;5.05;;;3.83;;
19842;SDS011;10082;51.038;6.992;2022-09-13T09:34:07;6.47;;;3.97;;
19842;SDS011;10082;51.038;6.992;2022-09-13T09:36:43;4.10;;;3.67;;
19842;SDS011;10082;51.038;6.992;2022-09-13T09:39:16;6.18;;;4.53;;
19842;SDS011;10082;51.038;6.992;2022-09-13T09:41:43;4.47;;;4.07;;
19842;SDS011;10082;51.038;6.992;2022-09-13T09:44:21;5.65;;;3.95;;
19842;SDS011;10082;51.038;6.992;2022-09-13T09:46:54;6.80;;;4.10;;
19842;SDS011;10082;51.038;6.992;2022-09-13T09:49:25;7.05;;;3.92;;
19842;SDS011;10082;51.038;6.992;2022-09-13T09:52:15;4.95;;;4.07;;
19842;SDS011;10082;51.038;6.992;2022-09-13T09:54:46;5.57;;;3.75;;
19842;SDS011;10082;51.038;6.992;2022-09-13T09:57:14;5.65;;;3.70;;
19842;SDS011;10082;51.038;6.992;2022-09-13T09:59:46;5.65;;;4.15;;
19842;SDS011;10082;51.038;6.992;2022-09-13T10:02:14;4.97;;;3.65;;
19842;SDS011;10082;51.038;6.992;2022-09-13T10:04:42;4.30;;;3.78;;
19842;SDS011;10082;51.038;6.992;2022-09-13T10:07:23;5.70;;;4.00;;
19842;SDS011;10082;51.038;6.992;2022-09-13T10:09:57;8.85;;;4.15;;
19842;SDS011;10082;51.038;6.992;2022-09-13T10:12:31;5.25;;;3.85;;
19842;SDS011;10082;51.038;6.992;2022-09-13T10:15:11;4.93;;;4.10;;
19842;SDS011;10082;51.038;6.992;2022-09-13T10:17:41;4.60;;;3.70;;
19842;SDS011;10082;51.038;6.992;2022-09-13T10:20:18;4.72;;;3.63;;
19842;SDS011;10082;51.038;6.992;2022-09-13T10:23:07;6.85;;;3.90;;
19842;SDS011;10082;51.038;6.992;2022-09-13T10:25:45;5.57;;;3.13;;
19842;SDS011;10082;51.038;6.992;2022-09-13T10:28:22;4.47;;;3.28;;
19842;SDS011;10082;51.038;6.992;2022-09-13T10:30:53;4.97;;;3.05;;
19842;SDS011;10082;51.038;6.992;2022-09-13T10:33:29;4.28;;;2.83;;
19842;SDS011;10082;51.038;6.992;2022-09-13T10:35:59;5.13;;;3.70;;
19842;SDS011;10082;51.038;6.992;2022-09-13T10:38:30;6.47;;;3.58;;
19842;SDS011;10082;51.038;6.992;2022-09-13T10:41:00;3.55;;;3.03;;
19842;SDS011;10082;51.038;6.992;2022-09-13T10:43:29;3.72;;;3.20;;
19842;SDS011;10082;51.038;6.992;2022-09-13T10:45:59;6.75;;;3.70;;
19842;SDS011;10082;51.038;6.992;2022-09-13T10:48:29;4.45;;;3.92;;
19842;SDS011;10082;51.038;6.992;2022-09-13T10:51:14;4.55;;;3.42;;
19842;SDS011;10082;51.038;6.992;2022-09-13T10:54:05;3.78;;;2.83;;
19842;SDS011;10082;51.038;6.992;2022-09-13T10:56:48;5.38;;;3.35;;
19842;SDS011;10082;51.038;6.992;2022-09-13T10:59:19;2.72;;;2.53;;
19842;SDS011;10082;51.038;6.992;2022-09-13T11:02:02;4.95;;;2.63;;
19842;SDS011;10082;51.038;6.992;2022-09-13T11:05:08;2.75;;;2.50;;
19842;SDS011;10082;51.038;6.992;2022-09-13T11:07:52;4.68;;;2.70;;
19842;SDS011;10082;51.038;6.992;2022-09-13T11:10:41;9.45;;;2.65;;
19842;SDS011;10082;51.038;6.992;2022-09-13T11:13:17;5.57;;;2.65;;
19842;SDS011;10082;51.038;6.992;2022-09-13T11:15:55;5.35;;;2.55;;
19842;SDS011;10082;51.038;6.992;2022-09-13T11:18:35;2.88;;;2.17;;
19842;SDS011;10082;51.038;6.992;2022-09-13T11:21:16;3.10;;;2.10;;
19842;SDS011;10082;51.038;6.992;2022-09-13T11:23:58;2.80;;;2.13;;
19842;SDS011;10082;51.038;6.992;2022-09-13T11:26:42;3.58;;;2.35;;
19842;SDS011;10082;51.038;6.992;2022-09-13T11:29:21;5.47;;;2.40;;
19842;SDS011;10082;51.038;6.992;2022-09-13T11:32:01;3.78;;;2.60;;
19842;SDS011;10082;51.038;6.992;2022-09-13T11:34:40;2.70;;;2.30;;
19842;SDS011;10082;51.038;6.992;2022-09-13T11:37:19;3.95;;;2.28;;
19842;SDS011;10082;51.038;6.992;2022-09-13T11:39:57;2.28;;;2.10;;
19842;SDS011;10082;51.038;6.992;2022-09-13T11:42:39;2.42;;;2.00;;
19842;SDS011;10082;51.038;6.992;2022-09-13T11:45:14;4.50;;;2.50;;
19842;SDS011;10082;51.038;6.992;2022-09-13T11:47:58;3.10;;;2.30;;
19842;SDS011;10082;51.038;6.992;2022-09-13T11:50:43;3.65;;;2.42;;
19842;SDS011;10082;51.038;6.992;2022-09-13T11:53:28;2.75;;;2.03;;
19842;SDS011;10082;51.038;6.992;2022-09-13T11:56:15;2.90;;;2.53;;
19842;SDS011;10082;51.038;6.992;2022-09-13T11:58:49;3.97;;;2.17;;
19842;SDS011;10082;51.038;6.992;2022-09-13T12:01:19;2.70;;;2.40;;
19842;SDS011;10082;51.038;6.992;2022-09-13T12:03:51;2.67;;;2.47;;
19842;SDS011;10082;51.038;6.992;2022-09-13T12:06:24;4.28;;;3.00;;
19842;SDS011;10082;51.038;6.992;2022-09-13T12:08:56;4.65;;;2.58;;
19842;SDS011;10082;51.038;6.992;2022-09-13T12:11:29;3.13;;;2.65;;
19842;SDS011;10082;51.038;6.992;2022-09-13T12:14:00;3.03;;;2.70;;
19842;SDS011;10082;51.038;6.992;2022-09-13T12:16:31;2.40;;;2.20;;
19842;SDS011;10082;51.038;6.992;2022-09-13T12:19:01;2.88;;;2.20;;
19842;SDS011;10082;51.038;6.992;2022-09-13T12:21:36;2.80;;;2.47;;
19842;SDS011;10082;51.038;6.992;2022-09-13T12:24:06;3.53;;;2.10;;
19842;SDS011;10082;51.038;6.992;2022-09-13T12:26:40;3.65;;;2.10;;
19842;SDS011;10082;51.038;6.992;2022-09-13T12:29:14;5.63;;;2.67;;
19842;SDS011;10082;51.038;6.992;2022-09-13T12:31:46;3.72;;;2.08;;
19842;SDS011;10082;51.038;6.992;2022-09-13T12:34:15;4.53;;;2.25;;
19842;SDS011;10082;51.038;6.992;2022-09-13T12:39:42;3.50;;;2.03;;
19842;SDS011;10082;51.038;6.992;2022-09-13T12:42:24;3.03;;;2.00;;
19842;SDS011;10082;51.038;6.992;2022-09-13T12:45:07;5.07;;;2.53;;
19842;SDS011;10082;51.038;6.992;2022-09-13T12:47:51;5.60;;;2.30;;
19842;SDS011;10082;51.038;6.992;2022-09-13T12:50:35;2.20;;;2.10;;
19842;SDS011;10082;51.038;6.992;2022-09-13T12:53:17;2.40;;;2.10;;
19842;SDS011;10082;51.038;6.992;2022-09-13T12:56:01;5.53;;;2.45;;
19842;SDS011;10082;51.038;6.992;2022-09-13T12:58:45;2.28;;;2.08;;
19842;SDS011;10082;51.038;6.992;2022-09-13T13:01:28;2.45;;;2.10;;
19842;SDS011;10082;51.038;6.992;2022-09-13T13:03:57;4.57;;;1.88;;
19842;SDS011;10082;51.038;6.992;2022-09-13T13:06:28;4.15;;;1.80;;
19842;SDS011;10082;51.038;6.992;2022-09-13T13:09:02;2.35;;;2.13;;
19842;SDS011;10082;51.038;6.992;2022-09-13T13:11:40;8.05;;;2.85;;
19842;SDS011;10082;51.038;6.992;2022-09-13T13:14:24;2.58;;;2.38;;
19842;SDS011;10082;51.038;6.992;2022-09-13T13:16:54;3.35;;;2.30;;
19842;SDS011;10082;51.038;6.992;2022-09-13T13:19:40;3.78;;;2.20;;
19842;SDS011;10082;51.038;6.992;2022-09-13T13:31:03;4.38;;;2.67;;
19842;SDS011;10082;51.038;6.992;2022-09-13T13:33:41;2.85;;;2.30;;
19842;SDS011;10082;51.038;6.992;2022-09-13T13:36:21;3.08;;;2.60;;
19842;SDS011;10082;51.038;6.992;2022-09-13T13:38:49;2.92;;;2.40;;
19842;SDS011;10082;51.038;6.992;2022-09-13T13:41:37;5.80;;;2.83;;
19842;SDS011;10082;51.038;6.992;2022-09-13T13:50:22;7.53;;;2.80;;
19842;SDS011;10082;51.038;6.992;2022-09-13T13:52:50;4.03;;;2.33;;
19842;SDS011;10082;51.038;6.992;2022-09-13T13:58:21;14.50;;;3.42;;
19842;SDS011;10082;51.038;6.992;2022-09-13T14:00:54;3.22;;;2.25;;
19842;SDS011;10082;51.038;6.992;2022-09-13T14:03:26;4.30;;;2.15;;
19842;SDS011;10082;51.038;6.992;2022-09-13T14:06:04;2.47;;;1.88;;
19842;SDS011;10082;51.038;6.992;2022-09-13T14:08:41;4.35;;;2.35;;
19842;SDS011;10082;51.038;6.992;2022-09-13T14:11:18;3.47;;;2.20;;
19842;SDS011;10082;51.038;6.992;2022-09-13T14:13:59;5.15;;;2.22;;
19842;SDS011;10082;51.038;6.992;2022-09-13T14:16:36;3.05;;;1.92;;
19842;SDS011;10082;51.038;6.992;2022-09-13T14:19:19;2.92;;;1.92;;
19842;SDS011;10082;51.038;6.992;2022-09-13T14:22:03;3.72;;;1.90;;
19842;SDS011;10082;51.038;6.992;2022-09-13T14:24:35;2.95;;;2.13;;
19842;SDS011;10082;51.038;6.992;2022-09-13T14:27:03;4.13;;;2.03;;
19842;SDS011;10082;51.038;6.992;2022-09-13T14:29:32;4.35;;;1.77;;
19842;SDS011;10082;51.038;6.992;2022-09-13T14:32:02;2.47;;;1.70;;
19842;SDS011;10082;51.038;6.992;2022-09-13T14:34:35;4.47;;;2.30;;
19842;SDS011;10082;51.038;6.992;2022-09-13T14:37:05;4.88;;;2.53;;
19842;SDS011;10082;51.038;6.992;2022-09-13T14:39:52;5.30;;;2.13;;
19842;SDS011;10082;51.038;6.992;2022-09-13T14:42:19;5.70;;;2.10;;
19842;SDS011;10082;51.038;6.992;2022-09-13T14:44:48;4.68;;;2.42;;
19842;SDS011;10082;51.038;6.992;2022-09-13T14:47:16;3.35;;;2.10;;
19842;SDS011;10082;51.038;6.992;2022-09-13T14:49:48;4.15;;;2.20;;
19842;SDS011;10082;51.038;6.992;2022-09-13T14:52:19;3.88;;;2.70;;
19842;SDS011;10082;51.038;6.992;2022-09-13T14:54:50;2.47;;;2.00;;
19842;SDS011;10082;51.038;6.992;2022-09-13T14:57:22;3.22;;;2.30;;
19842;SDS011;10082;51.038;6.992;2022-09-13T14:59:54;4.68;;;2.30;;
19842;SDS011;10082;51.038;6.992;2022-09-13T15:02:24;4.57;;;2.05;;
19842;SDS011;10082;51.038;6.992;2022-09-13T15:04:54;4.88;;;2.42;;
19842;SDS011;10082;51.038;6.992;2022-09-13T15:07:26;4.82;;;1.92;;
19842;SDS011;10082;51.038;6.992;2022-09-13T15:09:55;5.18;;;1.77;;
19842;SDS011;10082;51.038;6.992;2022-09-13T15:12:24;2.35;;;2.00;;
19842;SDS011;10082;51.038;6.992;2022-09-13T15:17:51;4.57;;;2.20;;
19842;SDS011;10082;51.038;6.992;2022-09-13T15:20:18;2.03;;;1.83;;
19842;SDS011;10082;51.038;6.992;2022-09-13T15:22:46;2.22;;;1.83;;
19842;SDS011;10082;51.038;6.992;2022-09-13T15:25:19;2.10;;;1.90;;
19842;SDS011;10082;51.038;6.992;2022-09-13T15:27:50;2.85;;;2.08;;
19842;SDS011;10082;51.038;6.992;2022-09-13T15:30:23;2.42;;;2.08;;
19842;SDS011;10082;51.038;6.992;2022-09-13T15:33:05;4.72;;;2.17;;
19842;SDS011;10082;51.038;6.992;2022-09-13T15:35:41;3.70;;;2.10;;
19842;SDS011;10082;51.038;6.992;2022-09-13T15:38:16;4.00;;;2.20;;
19842;SDS011;10082;51.038;6.992;2022-09-13T15:40:47;2.20;;;2.00;;
19842;SDS011;10082;51.038;6.992;2022-09-13T15:43:24;4.57;;;2.03;;